createdAt,value
2017-07-23T00:00:17.688Z,0
2017-07-23T00:01:30.276Z,0
2017-07-23T00:02:42.921Z,0
2017-07-23T00:03:55.476Z,0
2017-07-23T00:05:08.227Z,0
2017-07-23T00:06:20.780Z,0
2017-07-23T00:07:33.086Z,0
2017-07-23T00:08:45.736Z,0
2017-07-23T00:09:58.353Z,0
2017-07-23T00:11:10.656Z,0
2017-07-23T00:12:23.246Z,0
2017-07-23T00:13:35.503Z,0
2017-07-23T00:14:47.463Z,0
2017-07-23T00:16:00.009Z,0
2017-07-23T00:17:12.311Z,0
2017-07-23T00:18:24.879Z,0
2017-07-23T00:19:37.489Z,0
2017-07-23T00:20:49.722Z,0
2017-07-23T00:22:02.322Z,0
2017-07-23T00:23:14.565Z,0
2017-07-23T00:24:26.831Z,0
2017-07-23T00:25:39.138Z,0
2017-07-23T00:26:51.749Z,0
2017-07-23T00:28:04.376Z,0
2017-07-23T00:29:16.968Z,0
2017-07-23T00:30:29.560Z,0
2017-07-23T00:31:42.142Z,0
2017-07-23T00:32:54.726Z,0
2017-07-23T00:34:07.321Z,0
2017-07-23T00:35:19.931Z,0
2017-07-23T00:36:32.496Z,0
2017-07-23T00:37:44.528Z,0
2017-07-23T00:38:57.160Z,0
2017-07-23T00:40:09.716Z,0
2017-07-23T00:41:22.364Z,0
2017-07-23T00:42:34.673Z,0
2017-07-23T00:43:46.749Z,0
2017-07-23T00:44:59.311Z,0
2017-07-23T00:46:11.938Z,0
2017-07-23T00:47:24.214Z,0
2017-07-23T00:48:36.805Z,0
2017-07-23T00:49:49.067Z,0
2017-07-23T00:51:01.322Z,0
2017-07-23T00:52:13.911Z,0
2017-07-23T00:53:26.539Z,0
2017-07-23T00:54:38.829Z,0
2017-07-23T00:55:51.452Z,0
2017-07-23T00:57:03.699Z,0
2017-07-23T00:58:16.294Z,0
2017-07-23T00:59:29.150Z,0
2017-07-23T01:00:41.757Z,0
2017-07-23T01:01:54.332Z,0
2017-07-23T01:03:06.657Z,0
2017-07-23T01:04:19.213Z,0
2017-07-23T01:05:31.753Z,0
2017-07-23T01:06:44.344Z,0
2017-07-23T01:07:57.019Z,0
2017-07-23T01:09:09.641Z,0
2017-07-23T01:10:22.275Z,0
2017-07-23T01:11:34.875Z,0
2017-07-23T01:12:47.192Z,0
2017-07-23T01:13:59.749Z,0
2017-07-23T01:15:12.018Z,0
2017-07-23T01:16:24.621Z,0
2017-07-23T01:17:36.926Z,0
2017-07-23T01:18:49.540Z,0
2017-07-23T01:20:02.098Z,0
2017-07-23T01:21:14.364Z,0
2017-07-23T01:22:26.627Z,0
2017-07-23T01:23:39.273Z,0
2017-07-23T01:24:51.894Z,0
2017-07-23T01:26:04.500Z,0
2017-07-23T01:27:17.079Z,0
2017-07-23T01:28:29.367Z,0
2017-07-23T01:29:41.911Z,0
2017-07-23T01:30:54.164Z,0
2017-07-23T01:32:06.776Z,0
2017-07-23T01:33:19.378Z,0
2017-07-23T01:34:31.986Z,0
2017-07-23T01:35:44.517Z,0
2017-07-23T01:36:57.092Z,0
2017-07-23T01:38:09.618Z,0
2017-07-23T01:39:22.230Z,0
2017-07-23T01:40:34.527Z,0
2017-07-23T01:41:46.775Z,0
2017-07-23T01:42:59.554Z,0
2017-07-23T01:44:12.235Z,0
2017-07-23T01:45:24.484Z,0
2017-07-23T01:46:37.134Z,0
2017-07-23T01:47:49.750Z,0
2017-07-23T01:49:02.326Z,0
2017-07-23T01:50:14.615Z,0
2017-07-23T01:51:26.943Z,0
2017-07-23T01:52:39.525Z,0
2017-07-23T01:53:51.802Z,0
2017-07-23T01:55:04.050Z,0
2017-07-23T01:56:16.598Z,0
2017-07-23T01:57:29.148Z,0
2017-07-23T01:58:41.762Z,0
2017-07-23T01:59:54.332Z,0
2017-07-23T02:01:06.982Z,0
2017-07-23T02:02:19.252Z,0
2017-07-23T02:03:31.821Z,0
2017-07-23T02:04:44.399Z,0
2017-07-23T02:05:56.986Z,0
2017-07-23T02:07:09.259Z,0
2017-07-23T02:08:21.565Z,0
2017-07-23T02:09:34.177Z,0
2017-07-23T02:10:46.789Z,0
2017-07-23T02:11:59.402Z,0
2017-07-23T02:13:12.044Z,0
2017-07-23T02:14:24.635Z,0
2017-07-23T02:15:37.240Z,0
2017-07-23T02:16:49.832Z,0
2017-07-23T02:18:02.422Z,0
2017-07-23T02:19:14.967Z,0
2017-07-23T02:20:27.568Z,0
2017-07-23T02:21:40.184Z,0
2017-07-23T02:22:52.737Z,0
2017-07-23T02:24:05.012Z,0
2017-07-23T02:25:17.297Z,0
2017-07-23T02:26:29.625Z,0
2017-07-23T02:27:42.171Z,0
2017-07-23T02:28:54.796Z,0
2017-07-23T02:30:07.045Z,4
2017-07-23T02:31:19.633Z,4
2017-07-23T02:32:32.278Z,4
2017-07-23T02:33:44.849Z,4
2017-07-23T02:34:57.454Z,4
2017-07-23T02:36:10.046Z,4
2017-07-23T02:37:22.918Z,4
2017-07-23T02:38:35.538Z,8
2017-07-23T02:39:48.166Z,4
2017-07-23T02:41:00.761Z,8
2017-07-23T02:42:13.442Z,8
2017-07-23T02:43:25.749Z,8
2017-07-23T02:44:38.283Z,12
2017-07-23T02:45:50.513Z,12
2017-07-23T02:47:03.036Z,12
2017-07-23T02:48:15.649Z,16
2017-07-23T02:49:28.241Z,16
2017-07-23T02:50:40.822Z,20
2017-07-23T02:51:53.164Z,20
2017-07-23T02:53:05.764Z,24
2017-07-23T02:54:18.106Z,32
2017-07-23T02:55:30.700Z,32
2017-07-23T02:56:43.272Z,40
2017-07-23T02:57:55.843Z,44
2017-07-23T02:59:08.418Z,44
2017-07-23T03:00:21.030Z,52
2017-07-23T03:01:33.682Z,56
2017-07-23T03:02:46.306Z,64
2017-07-23T03:03:58.926Z,76
2017-07-23T03:05:11.549Z,88
2017-07-23T03:06:24.067Z,104
2017-07-23T03:07:36.616Z,108
2017-07-23T03:08:49.174Z,124
2017-07-23T03:10:01.725Z,140
2017-07-23T03:11:14.280Z,160
2017-07-23T03:12:26.563Z,168
2017-07-23T03:13:39.189Z,212
2017-07-23T03:14:51.752Z,240
2017-07-23T03:16:04.342Z,268
2017-07-23T03:17:16.651Z,300
2017-07-23T03:18:28.896Z,312
2017-07-23T03:19:41.489Z,348
2017-07-23T03:20:54.044Z,400
2017-07-23T03:22:06.605Z,416
2017-07-23T03:23:18.861Z,420
2017-07-23T03:24:31.474Z,480
2017-07-23T03:25:44.091Z,548
2017-07-23T03:26:56.631Z,576
2017-07-23T03:28:09.215Z,640
2017-07-23T03:29:21.193Z,728
2017-07-23T03:30:33.801Z,712
2017-07-23T03:31:46.397Z,756
2017-07-23T03:32:58.991Z,872
2017-07-23T03:34:11.370Z,852
2017-07-23T03:35:23.944Z,952
2017-07-23T03:36:36.511Z,1048
2017-07-23T03:37:49.062Z,1280
2017-07-23T03:39:01.677Z,1276
2017-07-23T03:40:14.252Z,1304
2017-07-23T03:41:26.887Z,1272
2017-07-23T03:42:39.192Z,1300
2017-07-23T03:43:51.765Z,1272
2017-07-23T03:45:04.327Z,1300
2017-07-23T03:46:16.622Z,1400
2017-07-23T03:47:29.205Z,1436
2017-07-23T03:48:41.246Z,1548
2017-07-23T03:49:53.809Z,1500
2017-07-23T03:51:06.407Z,1576
2017-07-23T03:52:18.955Z,1504
2017-07-23T03:53:31.477Z,1484
2017-07-23T03:54:44.043Z,1488
2017-07-23T03:55:56.615Z,1576
2017-07-23T03:57:09.236Z,1828
2017-07-23T03:58:21.481Z,1964
2017-07-23T03:59:34.102Z,2032
2017-07-23T04:00:46.648Z,2120
2017-07-23T04:01:59.201Z,2160
2017-07-23T04:03:11.840Z,2076
2017-07-23T04:04:23.812Z,2208
2017-07-23T04:05:36.382Z,2384
2017-07-23T04:06:48.985Z,2424
2017-07-23T04:08:01.580Z,2596
2017-07-23T04:09:14.177Z,2840
2017-07-23T04:10:26.808Z,2824
2017-07-23T04:11:39.092Z,2920
2017-07-23T04:12:51.699Z,3104
2017-07-23T04:14:04.236Z,3072
2017-07-23T04:15:16.476Z,2840
2017-07-23T04:16:29.138Z,3104
2017-07-23T04:17:41.722Z,3180
2017-07-23T04:18:54.323Z,2796
2017-07-23T04:20:06.640Z,3004
2017-07-23T04:21:19.210Z,2688
2017-07-23T04:22:31.811Z,2820
2017-07-23T04:23:44.455Z,2860
2017-07-23T04:24:56.740Z,2544
2017-07-23T04:26:09.238Z,2752
2017-07-23T04:27:21.183Z,2816
2017-07-23T04:28:33.814Z,2548
2017-07-23T04:29:45.824Z,2504
2017-07-23T04:30:58.358Z,2436
2017-07-23T04:32:10.956Z,2512
2017-07-23T04:33:23.263Z,2448
2017-07-23T04:34:35.820Z,2420
2017-07-23T04:35:48.453Z,2636
2017-07-23T04:37:01.017Z,2704
2017-07-23T04:38:13.571Z,2912
2017-07-23T04:39:25.618Z,3020
2017-07-23T04:40:38.220Z,3468
2017-07-23T04:41:50.815Z,3452
2017-07-23T04:43:03.417Z,3056
2017-07-23T04:44:15.677Z,2996
2017-07-23T04:45:28.221Z,3188
2017-07-23T04:46:40.223Z,3352
2017-07-23T04:47:52.764Z,3688
2017-07-23T04:49:05.043Z,5004
2017-07-23T04:50:17.358Z,5236
2017-07-23T04:51:29.902Z,5320
2017-07-23T04:52:42.227Z,5196
2017-07-23T04:53:54.769Z,5520
2017-07-23T04:55:07.115Z,5252
2017-07-23T04:56:19.103Z,5008
2017-07-23T04:57:31.742Z,5036
2017-07-23T04:58:44.601Z,5280
2017-07-23T04:59:57.172Z,5576
2017-07-23T05:01:09.401Z,6512
2017-07-23T05:02:22.068Z,7176
2017-07-23T05:03:34.687Z,7540
2017-07-23T05:04:47.038Z,8368
2017-07-23T05:05:59.603Z,7848
2017-07-23T05:07:12.205Z,7988
2017-07-23T05:08:24.210Z,9472
2017-07-23T05:09:36.790Z,8968
2017-07-23T05:10:48.761Z,8088
2017-07-23T05:12:01.332Z,8776
2017-07-23T05:13:13.634Z,8052
2017-07-23T05:14:26.189Z,7992
2017-07-23T05:15:38.795Z,7560
2017-07-23T05:16:51.402Z,7616
2017-07-23T05:18:03.990Z,8632
2017-07-23T05:19:16.543Z,9340
2017-07-23T05:20:28.881Z,8360
2017-07-23T05:21:40.824Z,7696
2017-07-23T05:22:53.469Z,8184
2017-07-23T05:24:06.101Z,9740
2017-07-23T05:25:18.387Z,8928
2017-07-23T05:26:30.983Z,8960
2017-07-23T05:27:43.180Z,9016
2017-07-23T05:28:55.703Z,10028
2017-07-23T05:30:07.975Z,10296
2017-07-23T05:31:20.894Z,10416
2017-07-23T05:32:33.175Z,9328
2017-07-23T05:33:45.526Z,13064
2017-07-23T05:34:58.141Z,15764
2017-07-23T05:36:10.748Z,15988
2017-07-23T05:37:23.357Z,16624
2017-07-23T05:38:35.996Z,14272
2017-07-23T05:39:48.545Z,12912
2017-07-23T05:41:00.850Z,13536
2017-07-23T05:42:13.130Z,14948
2017-07-23T05:43:25.694Z,17568
2017-07-23T05:44:38.308Z,16860
2017-07-23T05:45:50.874Z,19872
2017-07-23T05:47:03.163Z,16704
2017-07-23T05:48:15.736Z,17144
2017-07-23T05:49:28.361Z,18848
2017-07-23T05:50:40.907Z,19264
2017-07-23T05:51:53.571Z,19808
2017-07-23T05:53:06.179Z,21792
2017-07-23T05:54:18.798Z,21504
2017-07-23T05:55:31.388Z,23488
2017-07-23T05:56:43.913Z,27648
2017-07-23T05:57:56.512Z,29248
2017-07-23T05:59:09.133Z,29440
2017-07-23T06:00:21.753Z,23104
2017-07-23T06:01:34.064Z,12868
2017-07-23T06:02:46.385Z,4148
2017-07-23T06:03:58.642Z,1328
2017-07-23T06:05:11.270Z,2200
2017-07-23T06:06:23.923Z,6472
2017-07-23T06:07:36.602Z,8412
2017-07-23T06:08:48.840Z,4772
2017-07-23T06:10:01.337Z,3008
2017-07-23T06:11:13.651Z,2236
2017-07-23T06:12:26.239Z,2480
2017-07-23T06:13:38.525Z,3368
2017-07-23T06:14:50.251Z,4164
2017-07-23T06:16:02.852Z,5372
2017-07-23T06:17:14.847Z,4004
2017-07-23T06:18:27.114Z,2676
2017-07-23T06:19:39.704Z,3796
2017-07-23T06:20:52.311Z,3812
2017-07-23T06:22:04.595Z,3576
2017-07-23T06:23:16.572Z,4680
2017-07-23T06:24:29.137Z,4792
2017-07-23T06:25:41.394Z,3744
2017-07-23T06:26:54.036Z,3468
2017-07-23T06:28:06.686Z,3036
2017-07-23T06:29:18.921Z,2440
2017-07-23T06:30:31.499Z,2080
2017-07-23T06:31:43.738Z,1392
2017-07-23T06:32:56.313Z,960
2017-07-23T06:34:08.555Z,912
2017-07-23T06:35:21.151Z,1000
2017-07-23T06:36:33.761Z,1044
2017-07-23T06:37:46.335Z,1144
2017-07-23T06:38:58.946Z,1236
2017-07-23T06:40:11.221Z,1292
2017-07-23T06:41:23.792Z,1200
2017-07-23T06:42:36.431Z,1132
2017-07-23T06:43:49.046Z,1104
2017-07-23T06:45:01.343Z,1080
2017-07-23T06:46:13.995Z,1084
2017-07-23T06:47:26.846Z,1104
2017-07-23T06:48:39.481Z,1184
2017-07-23T06:49:52.012Z,1300
2017-07-23T06:51:04.029Z,1424
2017-07-23T06:52:16.579Z,1544
2017-07-23T06:53:29.207Z,1664
2017-07-23T06:54:41.495Z,1760
2017-07-23T06:55:54.137Z,1816
2017-07-23T06:57:06.728Z,1804
2017-07-23T06:58:19.548Z,1728
2017-07-23T06:59:32.169Z,1688
2017-07-23T07:00:44.489Z,1700
2017-07-23T07:01:57.134Z,1748
2017-07-23T07:03:09.498Z,1828
2017-07-23T07:04:21.529Z,1908
2017-07-23T07:05:34.152Z,1948
2017-07-23T07:06:46.451Z,1980
2017-07-23T07:07:59.015Z,2016
2017-07-23T07:09:10.985Z,2108
2017-07-23T07:10:23.600Z,2320
2017-07-23T07:11:35.603Z,2756
2017-07-23T07:12:47.574Z,3364
2017-07-23T07:13:59.861Z,3944
2017-07-23T07:15:12.458Z,4276
2017-07-23T07:16:24.777Z,4652
2017-07-23T07:17:37.394Z,5252
2017-07-23T07:18:50.046Z,5692
2017-07-23T07:20:02.304Z,5516
2017-07-23T07:21:14.859Z,5016
2017-07-23T07:22:27.497Z,4432
2017-07-23T07:23:40.165Z,4428
2017-07-23T07:24:52.463Z,4740
2017-07-23T07:26:05.086Z,4928
2017-07-23T07:27:17.375Z,5092
2017-07-23T07:28:29.970Z,5240
2017-07-23T07:29:42.619Z,5360
2017-07-23T07:30:55.210Z,5448
2017-07-23T07:32:07.456Z,5544
2017-07-23T07:33:18.865Z,5476
2017-07-23T07:34:31.435Z,5428
2017-07-23T07:35:44.002Z,5524
2017-07-23T07:36:56.268Z,5840
2017-07-23T07:38:08.544Z,6264
2017-07-23T07:39:21.100Z,6560
2017-07-23T07:40:33.708Z,6976
2017-07-23T07:41:46.568Z,7404
2017-07-23T07:42:59.170Z,7916
2017-07-23T07:44:11.753Z,8432
2017-07-23T07:45:24.038Z,9180
2017-07-23T07:46:36.362Z,9780
2017-07-23T07:47:48.305Z,10272
2017-07-23T07:49:00.900Z,10744
2017-07-23T07:50:13.156Z,11152
2017-07-23T07:51:25.475Z,11496
2017-07-23T07:52:38.064Z,11596
2017-07-23T07:53:50.059Z,11376
2017-07-23T07:55:02.680Z,11176
2017-07-23T07:56:15.214Z,11068
2017-07-23T07:57:27.850Z,11144
2017-07-23T07:58:40.744Z,11168
2017-07-23T07:59:53.314Z,11104
2017-07-23T08:01:05.921Z,10904
2017-07-23T08:02:17.959Z,10792
2017-07-23T08:03:30.584Z,10848
2017-07-23T08:04:42.848Z,11116
2017-07-23T08:05:55.399Z,11596
2017-07-23T08:07:07.749Z,12216
2017-07-23T08:08:20.321Z,13292
2017-07-23T08:09:32.607Z,14624
2017-07-23T08:10:45.145Z,15924
2017-07-23T08:11:57.729Z,17052
2017-07-23T08:13:10.295Z,17984
2017-07-23T08:14:22.827Z,18592
2017-07-23T08:15:35.514Z,19136
2017-07-23T08:16:48.135Z,19616
2017-07-23T08:18:00.462Z,19904
2017-07-23T08:19:12.737Z,20320
2017-07-23T08:20:25.375Z,20672
2017-07-23T08:21:37.702Z,21056
2017-07-23T08:22:49.650Z,21984
2017-07-23T08:24:02.282Z,23584
2017-07-23T08:25:14.919Z,25184
2017-07-23T08:26:26.910Z,27104
2017-07-23T08:27:39.564Z,28672
2017-07-23T08:28:52.118Z,29952
2017-07-23T08:30:04.344Z,31232
2017-07-23T08:31:16.619Z,29920
2017-07-23T08:32:28.912Z,26176
2017-07-23T08:33:41.599Z,22688
2017-07-23T08:34:54.177Z,20512
2017-07-23T08:36:06.791Z,17984
2017-07-23T08:37:19.411Z,16384
2017-07-23T08:38:31.690Z,16748
2017-07-23T08:39:44.304Z,16696
2017-07-23T08:40:56.856Z,17696
2017-07-23T08:42:09.152Z,22912
2017-07-23T08:43:21.159Z,25280
2017-07-23T08:44:33.791Z,25472
2017-07-23T08:45:46.359Z,23776
2017-07-23T08:46:58.988Z,21056
2017-07-23T08:48:11.582Z,27136
2017-07-23T08:49:24.197Z,22560
2017-07-23T08:50:36.774Z,25440
2017-07-23T08:51:49.417Z,28000
2017-07-23T08:53:01.113Z,22688
2017-07-23T08:54:13.171Z,27424
2017-07-23T08:55:25.487Z,31904
2017-07-23T08:56:38.078Z,31840
2017-07-23T08:57:50.595Z,40096
2017-07-23T08:59:03.239Z,27424
2017-07-23T09:00:15.499Z,24352
2017-07-23T09:01:27.881Z,34240
2017-07-23T09:02:40.504Z,29088
2017-07-23T09:03:53.082Z,27104
2017-07-23T09:05:05.303Z,29504
2017-07-23T09:06:17.931Z,21888
2017-07-23T09:07:30.652Z,19200
2017-07-23T09:08:42.592Z,25408
2017-07-23T09:09:55.202Z,34176
2017-07-23T09:11:07.728Z,30240
2017-07-23T09:12:19.972Z,22208
2017-07-23T09:13:32.615Z,21888
2017-07-23T09:14:45.210Z,60224
2017-07-23T09:15:57.820Z,37472
2017-07-23T09:17:10.178Z,30560
2017-07-23T09:18:22.459Z,25824
2017-07-23T09:19:35.070Z,21312
2017-07-23T09:20:47.715Z,36032
2017-07-23T09:22:00.311Z,37952
2017-07-23T09:23:12.883Z,24128
2017-07-23T09:24:25.438Z,21760
2017-07-23T09:25:37.423Z,25184
2017-07-23T09:26:49.982Z,27584
2017-07-23T09:28:02.622Z,32768
2017-07-23T09:29:14.911Z,41184
2017-07-23T09:30:27.197Z,34304
2017-07-23T09:31:39.534Z,34528
2017-07-23T09:32:51.801Z,40864
2017-07-23T09:34:04.455Z,38816
2017-07-23T09:35:16.808Z,25216
2017-07-23T09:36:29.186Z,15444
2017-07-23T09:37:41.783Z,12828
2017-07-23T09:38:54.065Z,13596
2017-07-23T09:40:06.682Z,13348
2017-07-23T09:41:19.318Z,11184
2017-07-23T09:42:31.565Z,11388
2017-07-23T09:43:43.854Z,14024
2017-07-23T09:44:56.419Z,14500
2017-07-23T09:46:08.761Z,14496
2017-07-23T09:47:21.062Z,17168
2017-07-23T09:48:33.648Z,17792
2017-07-23T09:49:46.245Z,16468
2017-07-23T09:50:58.555Z,16964
2017-07-23T09:52:11.182Z,21120
2017-07-23T09:53:23.434Z,23680
2017-07-23T09:54:35.722Z,26688
2017-07-23T09:55:47.997Z,27296
2017-07-23T09:56:59.994Z,24800
2017-07-23T09:58:12.289Z,24000
2017-07-23T09:59:24.570Z,23808
2017-07-23T10:00:36.893Z,28000
2017-07-23T10:01:49.512Z,31232
2017-07-23T10:03:02.058Z,32672
2017-07-23T10:04:14.668Z,31712
2017-07-23T10:05:26.944Z,34112
2017-07-23T10:06:39.545Z,28896
2017-07-23T10:07:52.156Z,27776
2017-07-23T10:09:04.717Z,32096
2017-07-23T10:10:16.661Z,35680
2017-07-23T10:11:29.308Z,27328
2017-07-23T10:12:41.588Z,24448
2017-07-23T10:13:53.516Z,27424
2017-07-23T10:15:06.106Z,28448
2017-07-23T10:16:18.708Z,28992
2017-07-23T10:17:31.426Z,27232
2017-07-23T10:18:43.995Z,26592
2017-07-23T10:19:56.565Z,27232
2017-07-23T10:21:08.841Z,26080
2017-07-23T10:22:21.457Z,22080
2017-07-23T10:23:34.037Z,17032
2017-07-23T10:24:46.350Z,13164
2017-07-23T10:25:58.980Z,15504
2017-07-23T10:27:11.346Z,16404
2017-07-23T10:28:24.161Z,11092
2017-07-23T10:29:36.442Z,13700
2017-07-23T10:30:48.428Z,26016
2017-07-23T10:32:01.032Z,33088
2017-07-23T10:33:12.721Z,31552
2017-07-23T10:34:25.058Z,28608
2017-07-23T10:35:37.637Z,22976
2017-07-23T10:36:50.214Z,19360
2017-07-23T10:38:02.832Z,24992
2017-07-23T10:39:14.825Z,28000
2017-07-23T10:40:27.406Z,30304
2017-07-23T10:41:40.015Z,35872
2017-07-23T10:42:52.562Z,27392
2017-07-23T10:44:05.134Z,32512
2017-07-23T10:45:17.697Z,50400
2017-07-23T10:46:30.360Z,64096
2017-07-23T10:47:42.956Z,59424
2017-07-23T10:48:55.547Z,73248
2017-07-23T10:50:07.544Z,68992
2017-07-23T10:51:20.140Z,71808
2017-07-23T10:52:32.166Z,53536
2017-07-23T10:53:44.856Z,55680
2017-07-23T10:54:57.421Z,92000
2017-07-23T10:56:09.716Z,75072
2017-07-23T10:57:22.288Z,77120
2017-07-23T10:58:34.834Z,24928
2017-07-23T10:59:46.760Z,51456
2017-07-23T11:00:59.377Z,97312
2017-07-23T11:02:11.685Z,96768
2017-07-23T11:03:24.293Z,50080
2017-07-23T11:04:36.589Z,26048
2017-07-23T11:05:49.158Z,32832
2017-07-23T11:07:01.732Z,25888
2017-07-23T11:08:13.994Z,26176
2017-07-23T11:09:26.339Z,21504
2017-07-23T11:10:38.905Z,20096
2017-07-23T11:11:50.922Z,27104
2017-07-23T11:13:03.514Z,31936
2017-07-23T11:14:15.862Z,31008
2017-07-23T11:15:28.219Z,26368
2017-07-23T11:16:40.829Z,33664
2017-07-23T11:17:53.477Z,34720
2017-07-23T11:19:06.007Z,34272
2017-07-23T11:20:17.767Z,31392
2017-07-23T11:21:30.068Z,28320
2017-07-23T11:22:42.369Z,29056
2017-07-23T11:23:54.702Z,28352
2017-07-23T11:25:07.244Z,28160
2017-07-23T11:26:19.785Z,27808
2017-07-23T11:27:32.416Z,26880
2017-07-23T11:28:44.986Z,26272
2017-07-23T11:29:57.582Z,26432
2017-07-23T11:31:09.898Z,27264
2017-07-23T11:32:22.447Z,27936
2017-07-23T11:33:34.678Z,27840
2017-07-23T11:34:47.313Z,27328
2017-07-23T11:35:59.908Z,24992
2017-07-23T11:37:12.602Z,22528
2017-07-23T11:38:24.256Z,21952
2017-07-23T11:39:36.875Z,24352
2017-07-23T11:40:48.840Z,27904
2017-07-23T11:42:01.463Z,30528
2017-07-23T11:43:14.044Z,31200
2017-07-23T11:44:26.378Z,31264
2017-07-23T11:45:38.978Z,30944
2017-07-23T11:46:51.556Z,31488
2017-07-23T11:48:03.822Z,30720
2017-07-23T11:49:16.468Z,31520
2017-07-23T11:50:29.069Z,33536
2017-07-23T11:51:41.360Z,32256
2017-07-23T11:52:53.982Z,28160
2017-07-23T11:54:06.577Z,23904
2017-07-23T11:55:18.252Z,24896
2017-07-23T11:56:30.873Z,32832
2017-07-23T11:57:43.134Z,44352
2017-07-23T11:58:55.734Z,32320
2017-07-23T12:00:08.009Z,31392
2017-07-23T12:01:19.983Z,30624
2017-07-23T12:02:32.311Z,27296
2017-07-23T12:03:44.624Z,23392
2017-07-23T12:04:56.908Z,19680
2017-07-23T12:06:09.522Z,19392
2017-07-23T12:07:22.110Z,22304
2017-07-23T12:08:34.470Z,54496
2017-07-23T12:09:47.018Z,56864
2017-07-23T12:10:59.645Z,60352
2017-07-23T12:12:11.951Z,54784
2017-07-23T12:13:23.931Z,62144
2017-07-23T12:14:36.562Z,48768
2017-07-23T12:15:48.628Z,48192
2017-07-23T12:17:01.192Z,62400
2017-07-23T12:18:12.922Z,61536
2017-07-23T12:19:24.921Z,40864
2017-07-23T12:20:37.558Z,33632
2017-07-23T12:21:50.128Z,30624
2017-07-23T12:23:02.404Z,37760
2017-07-23T12:24:15.059Z,47936
2017-07-23T12:25:27.664Z,58880
2017-07-23T12:26:39.946Z,63840
2017-07-23T12:27:52.559Z,57024
2017-07-23T12:29:05.185Z,73696
2017-07-23T12:30:17.792Z,77248
2017-07-23T12:31:30.101Z,72928
2017-07-23T12:32:42.415Z,52416
2017-07-23T12:33:54.688Z,59264
2017-07-23T12:35:07.282Z,46624
2017-07-23T12:36:19.577Z,29792
2017-07-23T12:37:32.249Z,49184
2017-07-23T12:38:44.905Z,48800
2017-07-23T12:39:57.244Z,49760
2017-07-23T12:41:09.518Z,52736
2017-07-23T12:42:22.200Z,58144
2017-07-23T12:43:34.754Z,57824
2017-07-23T12:44:47.286Z,57152
2017-07-23T12:45:59.900Z,58496
2017-07-23T12:47:12.242Z,54464
2017-07-23T12:48:24.838Z,48000
2017-07-23T12:49:37.506Z,52384
2017-07-23T12:50:49.871Z,50656
2017-07-23T12:52:02.475Z,46656
2017-07-23T12:53:14.763Z,45088
2017-07-23T12:54:27.042Z,37088
2017-07-23T12:55:39.588Z,50944
2017-07-23T12:56:52.158Z,50912
2017-07-23T12:58:04.136Z,45184
2017-07-23T12:59:16.412Z,44448
2017-07-23T13:00:28.754Z,47040
2017-07-23T13:01:41.367Z,43904
2017-07-23T13:02:53.344Z,53920
2017-07-23T13:04:05.328Z,52384
2017-07-23T13:05:17.606Z,44480
2017-07-23T13:06:30.202Z,51104
2017-07-23T13:07:42.804Z,52992
2017-07-23T13:08:55.420Z,45888
2017-07-23T13:10:07.800Z,54496
2017-07-23T13:11:20.376Z,52576
2017-07-23T13:12:32.716Z,47264
2017-07-23T13:13:45.053Z,58080
2017-07-23T13:14:57.677Z,60832
2017-07-23T13:16:09.984Z,71200
2017-07-23T13:17:21.353Z,68224
2017-07-23T13:18:33.696Z,68160
2017-07-23T13:19:45.757Z,60352
2017-07-23T13:20:58.388Z,65248
2017-07-23T13:22:10.421Z,61728
2017-07-23T13:23:22.769Z,57920
2017-07-23T13:24:35.382Z,27840
2017-07-23T13:25:47.987Z,56480
2017-07-23T13:26:59.943Z,54048
2017-07-23T13:28:12.601Z,61248
2017-07-23T13:29:25.235Z,61984
2017-07-23T13:30:37.545Z,23264
2017-07-23T13:31:50.198Z,68960
2017-07-23T13:33:02.837Z,66720
2017-07-23T13:34:15.456Z,62912
2017-07-23T13:35:28.077Z,47040
2017-07-23T13:36:40.711Z,55904
2017-07-23T13:37:52.769Z,47936
2017-07-23T13:39:05.445Z,46880
2017-07-23T13:40:17.740Z,14444
2017-07-23T13:41:30.349Z,11920
2017-07-23T13:42:42.913Z,10776
2017-07-23T13:43:55.227Z,9952
2017-07-23T13:45:07.895Z,10268
2017-07-23T13:46:20.798Z,10304
2017-07-23T13:47:33.089Z,9728
2017-07-23T13:48:44.790Z,7264
2017-07-23T13:49:57.431Z,4728
2017-07-23T13:51:09.732Z,3372
2017-07-23T13:52:22.345Z,3300
2017-07-23T13:53:34.893Z,4808
2017-07-23T13:54:47.162Z,7964
2017-07-23T13:55:59.756Z,11220
2017-07-23T13:57:12.033Z,13928
2017-07-23T13:58:24.656Z,17184
2017-07-23T13:59:37.323Z,39936
2017-07-23T14:00:49.617Z,51296
2017-07-23T14:02:02.120Z,59616
2017-07-23T14:03:14.702Z,59200
2017-07-23T14:04:27.337Z,53312
2017-07-23T14:05:39.930Z,53760
2017-07-23T14:06:52.320Z,52512
2017-07-23T14:08:04.619Z,48672
2017-07-23T14:09:16.881Z,30592
2017-07-23T14:10:28.913Z,19264
2017-07-23T14:11:41.215Z,16376
2017-07-23T14:12:53.552Z,15776
2017-07-23T14:14:05.773Z,23552
2017-07-23T14:15:18.026Z,18944
2017-07-23T14:16:30.625Z,15188
2017-07-23T14:17:43.227Z,33248
2017-07-23T14:18:55.842Z,35264
2017-07-23T14:20:07.859Z,35616
2017-07-23T14:21:20.150Z,43584
2017-07-23T14:22:32.729Z,25952
2017-07-23T14:23:45.064Z,25440
2017-07-23T14:24:57.628Z,34176
2017-07-23T14:26:10.185Z,46528
2017-07-23T14:27:22.827Z,46560
2017-07-23T14:28:35.445Z,38336
2017-07-23T14:29:48.050Z,20352
2017-07-23T14:31:00.643Z,19008
2017-07-23T14:32:12.913Z,20096
2017-07-23T14:33:25.563Z,23296
2017-07-23T14:34:38.114Z,19840
2017-07-23T14:35:50.690Z,18496
2017-07-23T14:37:03.006Z,15276
2017-07-23T14:38:15.640Z,15068
2017-07-23T14:39:28.213Z,20800
2017-07-23T14:40:40.818Z,20416
2017-07-23T14:41:53.444Z,20192
2017-07-23T14:43:06.074Z,18976
2017-07-23T14:44:18.362Z,16960
2017-07-23T14:45:30.969Z,15588
2017-07-23T14:46:42.987Z,14624
2017-07-23T14:47:55.560Z,13400
2017-07-23T14:49:08.215Z,13300
2017-07-23T14:50:20.860Z,12764
2017-07-23T14:51:32.795Z,12072
2017-07-23T14:52:45.359Z,10880
2017-07-23T14:53:57.637Z,10504
2017-07-23T14:55:10.236Z,10580
2017-07-23T14:56:22.310Z,12028
2017-07-23T14:57:34.628Z,13828
2017-07-23T14:58:46.918Z,16704
2017-07-23T14:59:58.892Z,18272
2017-07-23T15:01:11.471Z,19552
2017-07-23T15:02:24.035Z,20416
2017-07-23T15:03:36.605Z,20224
2017-07-23T15:04:48.612Z,20960
2017-07-23T15:06:00.939Z,19936
2017-07-23T15:07:13.202Z,18848
2017-07-23T15:08:25.846Z,19168
2017-07-23T15:09:38.409Z,18144
2017-07-23T15:10:51.031Z,16768
2017-07-23T15:12:02.976Z,16848
2017-07-23T15:13:15.206Z,16968
2017-07-23T15:14:27.825Z,17792
2017-07-23T15:15:40.399Z,19552
2017-07-23T15:16:52.416Z,19936
2017-07-23T15:18:04.667Z,17856
2017-07-23T15:19:16.663Z,15096
2017-07-23T15:20:29.350Z,15276
2017-07-23T15:21:41.659Z,14128
2017-07-23T15:22:53.940Z,14240
2017-07-23T15:24:06.513Z,14140
2017-07-23T15:25:18.533Z,12952
2017-07-23T15:26:30.516Z,11880
2017-07-23T15:27:42.283Z,10704
2017-07-23T15:28:54.655Z,9952
2017-07-23T15:30:07.245Z,9008
2017-07-23T15:31:19.244Z,7416
2017-07-23T15:32:31.549Z,6756
2017-07-23T15:33:44.191Z,7080
2017-07-23T15:34:56.784Z,7168
2017-07-23T15:36:09.100Z,7216
2017-07-23T15:37:21.076Z,6932
2017-07-23T15:38:32.812Z,6796
2017-07-23T15:39:45.662Z,6760
2017-07-23T15:40:57.981Z,6700
2017-07-23T15:42:10.285Z,6648
2017-07-23T15:43:22.662Z,6592
2017-07-23T15:44:35.244Z,6092
2017-07-23T15:45:46.936Z,5724
2017-07-23T15:46:59.522Z,5536
2017-07-23T15:48:12.155Z,5604
2017-07-23T15:49:23.803Z,6044
2017-07-23T15:50:36.057Z,6616
2017-07-23T15:51:48.416Z,6576
2017-07-23T15:53:00.987Z,6536
2017-07-23T15:54:13.290Z,6552
2017-07-23T15:55:25.880Z,6380
2017-07-23T15:56:38.508Z,5956
2017-07-23T15:57:50.814Z,5596
2017-07-23T15:59:02.768Z,5340
2017-07-23T16:00:15.051Z,5380
2017-07-23T16:01:27.383Z,5260
2017-07-23T16:02:39.936Z,4932
2017-07-23T16:03:52.201Z,4212
2017-07-23T16:05:04.473Z,4028
2017-07-23T16:06:17.125Z,4104